ěÝzenÝ letovÚho provozu ╚eskÚ republiky
Letiste: LKKV Aktualizace: 12.07.2024 23:30:44  UTC
 METAR LKKV 12.07. 23:00 RRC
METAR LKKV 122300Z 00000KT 9999 FEW023 16/16 Q1011=
 TAF LKKV 12.07. 23:00 ...
TAF LKKV 122300Z 1300/1400 26006KT 9999 SCT030      TEMPO 1300/1306 SHRA BKN020TCU      PROB40 TEMPO 1300/1302 3000 TSRA BKN011CB      TEMPO 1306/1310 9999 BKN012      BECMG 1319/1321 VRB02KT=